Time;durP1;ratioP1;P1;durP2;ratioP2;P2;SDS_P1;SDS_P2;PMS_P1;PMS_P2;Temp;Humidity;BMP_temperature;BMP_pressure;BME280_temperature;BME280_humidity;BME280_pressure;Samples;Min_cycle;Max_cycle;Signal;HPM_P1;HPM_P2
2023/11/16 00:01:11;;;;;;;1.60;1.40;;;;;;;6.29;100.00;97013.10;110212;1242;69444;-66
2023/11/16 00:03:48;;;;;;;1.90;1.50;;;;;;;6.30;100.00;97018.23;110191;1242;68828;-65
2023/11/16 00:06:19;;;;;;;2.10;1.60;;;;;;;6.29;100.00;97018.98;110233;1242;69442;-65
2023/11/16 00:08:49;;;;;;;2.20;1.60;;;;;;;6.29;100.00;97021.73;110115;1244;58869;-66
2023/11/16 00:11:21;;;;;;;2.10;1.60;;;;;;;6.22;100.00;97021.82;110218;1242;58927;-66
2023/11/16 00:13:55;;;;;;;2.30;1.40;;;;;;;6.24;100.00;97028.63;110202;1242;71196;-66
2023/11/16 00:16:27;;;;;;;2.00;1.60;;;;;;;6.28;100.00;97029.93;110246;1242;69053;-66
2023/11/16 00:19:00;;;;;;;1.50;1.30;;;;;;;6.27;100.00;97033.30;110191;1242;68653;-66
2023/11/16 00:21:30;;;;;;;2.10;1.60;;;;;;;6.27;100.00;97037.45;110198;1242;58931;-66
2023/11/16 00:24:05;;;;;;;1.50;1.20;;;;;;;6.30;100.00;97042.09;110213;1242;58889;-65
2023/11/16 00:26:37;;;;;;;1.40;1.30;;;;;;;6.28;100.00;97036.15;110191;1241;70589;-66
2023/11/16 00:29:08;;;;;;;2.00;1.50;;;;;;;6.26;100.00;97034.91;110188;1242;69250;-66
2023/11/16 00:31:39;;;;;;;1.80;1.30;;;;;;;6.26;100.00;97034.90;110114;1244;69300;-65
2023/11/16 00:34:10;;;;;;;2.40;1.80;;;;;;;6.26;100.00;97031.83;110147;1245;58899;-66
2023/11/16 00:36:41;;;;;;;2.10;1.50;;;;;;;6.26;100.00;97035.61;110244;1242;58931;-66
2023/11/16 00:39:13;;;;;;;2.10;1.40;;;;;;;6.29;100.00;97035.26;110218;1240;71223;-66
2023/11/16 00:41:43;;;;;;;2.30;1.50;;;;;;;6.33;100.00;97042.05;110103;1241;68803;-66
2023/11/16 00:44:19;;;;;;;1.80;1.60;;;;;;;6.30;100.00;97038.45;110176;1242;69403;-66
2023/11/16 00:46:53;;;;;;;2.40;1.70;;;;;;;6.30;100.00;97037.06;110219;1242;58872;-66
2023/11/16 00:49:25;;;;;;;1.70;1.30;;;;;;;6.26;100.00;97038.23;110080;1244;59135;-66
2023/11/16 00:51:59;;;;;;;1.80;1.30;;;;;;;6.25;100.00;97044.87;110261;1241;70442;-66
2023/11/16 00:54:29;;;;;;;2.00;1.40;;;;;;;6.24;100.00;97051.49;110249;1242;69204;-67
2023/11/16 00:57:00;;;;;;;2.90;1.70;;;;;;;6.27;100.00;97049.58;110244;1240;68506;-66
2023/11/16 00:59:36;;;;;;;1.50;1.40;;;;;;;6.31;100.00;97048.95;110204;1241;59005;-66
2023/11/16 01:02:09;;;;;;;1.70;1.40;;;;;;;6.33;100.00;97051.23;110228;1242;58960;-66
2023/11/16 01:04:42;;;;;;;2.50;1.60;;;;;;;6.30;100.00;97053.89;110053;1241;70629;-66
2023/11/16 01:07:14;;;;;;;3.10;1.70;;;;;;;6.28;100.00;97055.68;110104;1241;68387;-66
2023/11/16 01:09:45;;;;;;;3.30;1.80;;;;;;;6.28;100.00;97056.58;110252;1242;68604;-66
2023/11/16 01:12:16;;;;;;;2.10;1.70;;;;;;;6.30;100.00;97053.86;110248;1242;58942;-66
2023/11/16 01:14:52;;;;;;;2.30;1.80;;;;;;;6.27;100.00;97053.91;110119;1241;58943;-66
2023/11/16 01:17:26;;;;;;;2.10;1.60;;;;;;;6.24;100.00;97048.38;110233;1242;71026;-66
2023/11/16 01:19:57;;;;;;;1.80;1.40;;;;;;;6.23;100.00;97049.27;110225;1242;68781;-66
2023/11/16 01:22:30;;;;;;;2.20;1.80;;;;;;;6.23;100.00;97049.66;110217;1241;68364;-66
2023/11/16 01:25:00;;;;;;;2.70;1.90;;;;;;;6.26;100.00;97050.63;110268;1242;58954;-66
2023/11/16 01:27:34;;;;;;;3.50;1.70;;;;;;;6.26;100.00;97057.39;110266;1242;58880;-66
2023/11/16 01:30:09;;;;;;;2.20;1.50;;;;;;;6.26;100.00;97059.99;110147;1241;70661;-67
2023/11/16 01:32:41;;;;;;;3.00;2.10;;;;;;;6.22;100.00;97058.84;110217;1242;68574;-66
2023/11/16 01:35:21;;;;;;;2.60;2.00;;;;;;;6.24;100.00;97059.63;110204;1242;69160;-66
2023/11/16 01:37:56;;;;;;;2.80;2.10;;;;;;;6.20;100.00;97056.76;110224;1242;58887;-66
2023/11/16 01:40:29;;;;;;;3.00;2.40;;;;;;;6.14;100.00;97057.23;110250;1242;58883;-66
2023/11/16 01:43:01;;;;;;;2.50;2.00;;;;;;;6.15;100.00;97054.61;110138;1244;70473;-66
2023/11/16 01:45:33;;;;;;;3.20;2.50;;;;;;;6.16;100.00;97050.90;110160;1240;69279;-67
2023/11/16 01:48:06;;;;;;;3.90;2.60;;;;;;;6.16;100.00;97051.98;110223;1242;68327;-66
2023/11/16 01:50:38;;;;;;;3.30;2.80;;;;;;;6.12;100.00;97050.10;110193;1242;58948;-66
2023/11/16 01:53:10;;;;;;;3.10;2.50;;;;;;;6.14;100.00;97053.80;110231;1242;58874;-66
2023/11/16 01:55:46;;;;;;;3.80;2.70;;;;;;;6.09;100.00;97051.84;110213;1242;69880;-66
2023/11/16 01:58:17;;;;;;;3.90;2.80;;;;;;;6.13;100.00;97053.20;110150;1244;67925;-65
2023/11/16 02:00:48;;;;;;;4.30;3.40;;;;;;;6.12;100.00;97055.13;110204;1245;69309;-65
2023/11/16 02:03:19;;;;;;;3.60;2.70;;;;;;;6.12;100.00;97061.89;110098;1244;58878;-65
2023/11/16 02:05:49;;;;;;;3.40;2.80;;;;;;;6.08;100.00;97062.61;110181;1242;58891;-68
2023/11/16 02:08:19;;;;;;;5.50;3.10;;;;;;;6.08;100.00;97064.55;110252;1240;70422;-65
2023/11/16 02:10:51;;;;;;;3.40;3.00;;;;;;;6.08;100.00;97063.13;110138;1244;68778;-67
2023/11/16 02:13:25;;;;;;;4.00;3.30;;;;;;;6.17;100.00;97064.04;110164;1245;69141;-67
2023/11/16 02:15:58;;;;;;;4.10;3.10;;;;;;;6.15;100.00;97063.10;110211;1242;58942;-67
2023/11/16 02:18:29;;;;;;;4.40;3.10;;;;;;;6.14;100.00;97063.51;110179;1242;58944;-67
2023/11/16 02:20:59;;;;;;;4.00;2.70;;;;;;;6.13;100.00;97066.64;110231;1242;69572;-66
2023/11/16 02:23:32;;;;;;;4.80;3.40;;;;;;;6.13;100.00;97072.23;110217;1240;68875;-66
2023/11/16 02:26:04;;;;;;;3.20;2.70;;;;;;;6.09;100.00;97078.29;110103;1245;69296;-66
2023/11/16 02:28:39;;;;;;;4.40;3.40;;;;;;;6.17;100.00;97077.71;110129;1245;58871;-67
2023/11/16 02:31:11;;;;;;;4.20;3.00;;;;;;;6.16;100.00;97080.16;110227;1242;58886;-67
2023/11/16 02:33:42;;;;;;;4.20;3.10;;;;;;;6.18;100.00;97081.58;110196;1240;70458;-66
2023/11/16 02:36:15;;;;;;;3.80;3.20;;;;;;;6.24;100.00;97081.09;110230;1242;69088;-65
2023/11/16 02:38:48;;;;;;;4.50;2.70;;;;;;;6.28;100.00;97082.38;110195;1241;69300;-65
2023/11/16 02:41:25;;;;;;;5.70;3.20;;;;;;;6.29;100.00;97083.71;110219;1241;58862;-65
2023/11/16 02:43:57;;;;;;;4.80;3.70;;;;;;;6.30;100.00;97091.46;110232;1242;58936;-66
2023/11/16 02:46:27;;;;;;;4.80;3.40;;;;;;;6.30;100.00;97095.21;110252;1242;69552;-66
2023/11/16 02:48:59;;;;;;;3.60;3.00;;;;;;;6.31;100.00;97103.46;110166;1242;68548;-65
2023/11/16 02:51:31;;;;;;;4.00;3.50;;;;;;;6.30;100.00;97111.35;110178;1240;70069;-65
2023/11/16 02:54:06;;;;;;;3.90;3.50;;;;;;;6.25;100.00;97113.89;110170;1241;58875;-66
2023/11/16 02:56:40;;;;;;;4.10;3.10;;;;;;;6.30;100.00;97121.55;110208;1241;58944;-66
2023/11/16 02:59:13;;;;;;;3.90;2.80;;;;;;;6.29;100.00;97119.20;110224;1242;70408;-66
2023/11/16 03:01:45;;;;;;;4.20;3.80;;;;;;;6.26;100.00;97118.00;110236;1242;69192;-66
2023/11/16 03:04:16;;;;;;;4.70;3.70;;;;;;;6.29;100.00;97121.91;110225;1245;69949;-66
2023/11/16 03:06:50;;;;;;;5.00;4.20;;;;;;;6.28;100.00;97118.86;110165;1245;58907;-66
2023/11/16 03:09:24;;;;;;;6.00;4.00;;;;;;;6.24;100.00;97127.09;110191;1242;58872;-67
2023/11/16 03:11:56;;;;;;;5.00;3.20;;;;;;;6.20;100.00;97129.29;110178;1241;70686;-67
2023/11/16 03:14:28;;;;;;;5.10;3.70;;;;;;;6.21;100.00;97125.77;110215;1242;68519;-67
2023/11/16 03:16:58;;;;;;;4.90;3.80;;;;;;;6.16;100.00;97131.05;110165;1242;69544;-66
2023/11/16 03:19:31;;;;;;;4.80;3.90;;;;;;;6.15;100.00;97133.66;110219;1241;58957;-66
2023/11/16 03:22:03;;;;;;;4.90;3.50;;;;;;;6.17;100.00;97130.96;110219;1241;58875;-67
2023/11/16 03:24:35;;;;;;;4.30;3.50;;;;;;;6.18;100.00;97135.73;110089;1245;70087;-66
2023/11/16 03:27:09;;;;;;;4.40;3.50;;;;;;;6.15;100.00;97143.23;110188;1240;69251;-67
2023/11/16 03:29:43;;;;;;;4.20;3.70;;;;;;;6.11;100.00;97148.95;110213;1241;69313;-66
2023/11/16 03:32:26;;;;;;;5.30;3.80;;;;;;;6.10;100.00;97152.80;110225;1242;58872;-66
2023/11/16 03:34:58;;;;;;;6.20;4.60;;;;;;;6.15;100.00;97158.27;110208;1242;58866;-67
2023/11/16 03:37:31;;;;;;;5.90;4.70;;;;;;;6.15;100.00;97159.99;110114;1245;69038;-67
2023/11/16 03:40:04;;;;;;;4.80;4.30;;;;;;;6.15;100.00;97155.15;110203;1241;68683;-66
2023/11/16 03:42:39;;;;;;;5.10;4.10;;;;;;;6.15;100.00;97152.38;110188;1241;69296;-66
2023/11/16 03:45:11;;;;;;;6.20;4.70;;;;;;;6.16;100.00;97157.35;110226;1242;58883;-67
2023/11/16 03:47:41;;;;;;;4.80;4.10;;;;;;;6.09;100.00;97151.30;110145;1242;58861;-67
2023/11/16 03:50:15;;;;;;;4.90;4.30;;;;;;;6.12;100.00;97156.88;110203;1242;70589;-66
2023/11/16 03:52:45;;;;;;;5.50;4.30;;;;;;;6.11;100.00;97159.69;110200;1241;68774;-66
2023/11/16 03:55:17;;;;;;;4.90;3.90;;;;;;;6.12;100.00;97162.89;110215;1243;69064;-67
2023/11/16 03:57:50;;;;;;;5.60;4.40;;;;;;;6.10;100.00;97165.42;110145;1245;58934;-66
2023/11/16 04:00:22;;;;;;;6.50;5.00;;;;;;;6.08;100.00;97164.00;110227;1241;58888;-66
2023/11/16 04:02:58;;;;;;;5.40;4.00;;;;;;;6.06;100.00;97170.38;110202;1241;69806;-66
2023/11/16 04:05:30;;;;;;;5.00;3.90;;;;;;;6.03;100.00;97178.14;110250;1242;69145;-67
2023/11/16 04:08:03;;;;;;;4.90;4.40;;;;;;;6.05;100.00;97176.32;110209;1242;68469;-66
2023/11/16 04:10:34;;;;;;;5.10;4.10;;;;;;;6.00;100.00;97188.36;110221;1243;58927;-66
2023/11/16 04:13:06;;;;;;;6.20;4.60;;;;;;;5.98;100.00;97188.31;110219;1242;58905;-67
2023/11/16 04:15:35;;;;;;;5.20;4.50;;;;;;;6.00;100.00;97191.46;110227;1242;71157;-66
2023/11/16 04:18:06;;;;;;;5.60;4.70;;;;;;;6.00;100.00;97190.75;110237;1242;69633;-66
2023/11/16 04:20:38;;;;;;;6.60;5.00;;;;;;;5.96;100.00;97190.89;110154;1245;68913;-67
2023/11/16 04:23:09;;;;;;;5.70;4.90;;;;;;;5.92;100.00;97200.26;110237;1241;58922;-66
2023/11/16 04:25:39;;;;;;;6.30;4.60;;;;;;;5.90;100.00;97205.52;110161;1241;58881;-67
2023/11/16 04:28:13;;;;;;;7.60;5.30;;;;;;;5.89;100.00;97213.38;110156;1243;70071;-67
2023/11/16 04:30:43;;;;;;;6.30;4.50;;;;;;;5.85;100.00;97220.82;110143;1241;68586;-66
2023/11/16 04:33:14;;;;;;;;;;;;;;;5.87;100.00;97221.63;110218;1242;70063;-67
2023/11/16 04:35:45;;;;;;;7.00;4.90;;;;;;;5.83;100.00;97216.83;110197;1241;58875;-67
2023/11/16 04:38:15;;;;;;;;;;;;;;;5.80;100.00;97220.77;110237;1241;58875;-66
2023/11/16 04:40:46;;;;;;;6.30;4.80;;;;;;;5.78;100.00;97217.27;110200;1240;70617;-67
2023/11/16 04:43:16;;;;;;;6.60;5.00;;;;;;;5.82;100.00;97216.33;110232;1242;68625;-66
2023/11/16 04:45:50;;;;;;;5.80;5.00;;;;;;;5.84;100.00;97209.66;110242;1241;68477;-66
2023/11/16 04:48:20;;;;;;;6.50;5.00;;;;;;;5.83;100.00;97208.37;110139;1246;58944;-67
2023/11/16 04:50:51;;;;;;;7.30;5.20;;;;;;;5.82;100.00;97211.02;110240;1242;58825;-66
2023/11/16 04:53:20;;;;;;;5.50;4.70;;;;;;;5.77;100.00;97219.94;110233;1242;70595;-66
2023/11/16 04:55:51;;;;;;;6.30;4.70;;;;;;;5.74;100.00;97223.91;110248;1240;69665;-66
2023/11/16 04:58:20;;;;;;;;;;;;;;;5.74;100.00;97225.27;110229;1240;68416;-66
2023/11/16 05:00:53;;;;;;;6.40;5.00;;;;;;;5.72;100.00;97226.07;110249;1242;59706;-67
2023/11/16 05:03:24;;;;;;;6.50;5.00;;;;;;;5.74;100.00;97233.10;110203;1249;59682;-66
2023/11/16 05:05:56;;;;;;;4.90;3.90;;;;;;;5.74;100.00;97232.54;110210;1242;71633;-66
2023/11/16 05:08:25;;;;;;;5.50;4.10;;;;;;;5.74;100.00;97233.23;110238;1242;69822;-66
2023/11/16 05:10:57;;;;;;;4.70;3.80;;;;;;;5.76;100.00;97232.92;110188;1242;69992;-66
2023/11/16 05:13:27;;;;;;;5.80;4.50;;;;;;;5.77;100.00;97238.23;110217;1241;59744;-66
2023/11/16 05:15:57;;;;;;;5.80;4.40;;;;;;;5.78;100.00;97232.84;110208;1242;59799;-66
2023/11/16 05:18:28;;;;;;;6.00;4.60;;;;;;;5.77;100.00;97237.02;110221;1242;70694;-66
2023/11/16 05:21:04;;;;;;;5.50;4.90;;;;;;;5.76;100.00;97242.95;110215;1242;69596;-66
2023/11/16 05:23:35;;;;;;;5.30;4.00;;;;;;;5.74;100.00;97250.20;110213;1242;69095;-67
2023/11/16 05:26:08;;;;;;;5.90;4.80;;;;;;;5.75;100.00;97249.95;110152;1242;59708;-66
2023/11/16 05:28:38;;;;;;;7.40;5.60;;;;;;;5.75;100.00;97248.70;110222;1240;59746;-66
2023/11/16 05:31:08;;;;;;;7.00;5.10;;;;;;;5.73;100.00;97257.01;110211;1240;71587;-66
2023/11/16 05:33:38;;;;;;;5.60;5.00;;;;;;;5.63;100.00;97259.25;110198;1240;69244;-66
2023/11/16 05:36:11;;;;;;;5.30;4.70;;;;;;;5.60;100.00;97263.55;110192;1240;69308;-66
2023/11/16 05:38:43;;;;;;;5.90;4.80;;;;;;;5.63;100.00;97266.67;110182;1241;59754;-65
2023/11/16 05:41:17;;;;;;;7.00;5.90;;;;;;;5.64;100.00;97268.73;110181;1242;59676;-66
2023/11/16 05:43:49;;;;;;;7.90;5.90;;;;;;;5.64;100.00;97272.67;110155;1242;71412;-66
2023/11/16 05:46:19;;;;;;;6.30;5.20;;;;;;;5.64;100.00;97278.41;110176;1242;69662;-66
2023/11/16 05:48:49;;;;;;;6.50;5.20;;;;;;;5.64;100.00;97281.84;110144;1242;69780;-66
2023/11/16 05:51:18;;;;;;;6.50;5.70;;;;;;;5.67;100.00;97286.05;110204;1242;59745;-66
2023/11/16 05:53:48;;;;;;;7.80;5.80;;;;;;;5.65;100.00;97285.96;110159;1241;59664;-66
2023/11/16 05:56:18;;;;;;;6.80;5.30;;;;;;;5.65;100.00;97286.09;110197;1242;70697;-66
2023/11/16 05:58:49;;;;;;;6.20;5.10;;;;;;;5.66;100.00;97287.48;110235;1242;68507;-66
2023/11/16 06:01:18;;;;;;;6.90;6.00;;;;;;;5.68;100.00;97289.95;110220;1242;68600;-66
2023/11/16 06:03:47;;;;;;;5.80;4.90;;;;;;;5.71;100.00;97292.02;110197;1242;59716;-66
2023/11/16 06:06:17;;;;;;;6.10;5.30;;;;;;;5.74;100.00;97292.89;110166;1242;59600;-66
2023/11/16 06:08:47;;;;;;;6.40;5.20;;;;;;;5.76;100.00;97293.81;110191;1242;71871;-66
2023/11/16 06:11:17;;;;;;;6.00;4.60;;;;;;;5.79;100.00;97291.39;110162;1242;69689;-66
2023/11/16 06:13:46;;;;;;;6.30;4.80;;;;;;;5.83;100.00;97294.14;110202;1249;69325;-66
2023/11/16 06:16:17;;;;;;;5.90;4.30;;;;;;;5.86;100.00;97295.17;110163;1242;59709;-65
2023/11/16 06:18:46;;;;;;;;;;;;;;;5.90;100.00;97298.95;110169;1242;59676;-65
2023/11/16 06:21:16;;;;;;;5.50;3.90;;;;;;;5.95;100.00;97297.82;110265;1242;71379;-65
2023/11/16 06:23:46;;;;;;;5.80;4.10;;;;;;;5.99;100.00;97296.01;110208;1242;69679;-66
2023/11/16 06:26:16;;;;;;;;;;;;;;;6.04;100.00;97293.48;110238;1241;69900;-67
2023/11/16 06:28:47;;;;;;;6.70;4.60;;;;;;;6.05;100.00;97296.86;110207;1242;59693;-67
2023/11/16 06:31:19;;;;;;;6.50;5.20;;;;;;;6.04;100.00;97301.60;110237;1241;59654;-67
2023/11/16 06:33:48;;;;;;;6.80;5.20;;;;;;;6.08;100.00;97302.95;110232;1243;71325;-66
2023/11/16 06:36:21;;;;;;;6.40;4.80;;;;;;;6.09;100.00;97304.27;110203;1243;69678;-66
2023/11/16 06:38:51;;;;;;;7.00;5.50;;;;;;;6.17;100.00;97305.39;110222;1241;69876;-65
2023/11/16 06:41:20;;;;;;;;;;;;;;;6.24;100.00;97310.52;110287;1243;60076;-65
2023/11/16 06:43:51;;;;;;;6.40;5.00;;;;;;;6.26;100.00;97312.81;110231;1242;59660;-66
2023/11/16 06:46:21;;;;;;;5.60;4.70;;;;;;;6.30;100.00;97313.09;110227;1242;71373;-66
2023/11/16 06:48:50;;;;;;;5.10;4.50;;;;;;;6.45;100.00;97318.67;110293;1242;69467;-66
2023/11/16 06:51:21;;;;;;;6.60;5.00;;;;;;;6.53;100.00;97323.58;110223;1242;70035;-66
2023/11/16 06:53:51;;;;;;;6.00;4.10;;;;;;;6.65;100.00;97327.90;110242;1242;59759;-66
2023/11/16 06:56:23;;;;;;;4.60;4.00;;;;;;;6.74;100.00;97327.55;110239;1241;59744;-65
2023/11/16 06:58:53;;;;;;;5.90;4.50;;;;;;;6.74;100.00;97330.84;110178;1244;71305;-66
2023/11/16 07:01:23;;;;;;;4.90;4.00;;;;;;;6.80;100.00;97330.81;110235;1242;69375;-66
2023/11/16 07:03:52;;;;;;;6.40;4.50;;;;;;;6.89;100.00;97336.91;110223;1240;68874;-65
2023/11/16 07:06:22;;;;;;;4.30;3.40;;;;;;;6.98;100.00;97337.23;110236;1242;60199;-65
2023/11/16 07:08:52;;;;;;;5.30;4.00;;;;;;;7.05;100.00;97337.12;110186;1243;59641;-66
2023/11/16 07:11:21;;;;;;;;;;;;;;;7.08;100.00;97336.81;110183;1242;71284;-66
2023/11/16 07:13:50;;;;;;;4.20;3.30;;;;;;;7.08;100.00;97337.66;110167;1241;69213;-66
2023/11/16 07:16:21;;;;;;;5.90;3.70;;;;;;;7.09;100.00;97338.29;110202;1242;69277;-66
2023/11/16 07:18:52;;;;;;;4.20;3.50;;;;;;;7.12;100.00;97338.81;110167;1242;59747;-66
2023/11/16 07:21:22;;;;;;;3.90;3.10;;;;;;;7.12;100.00;97337.39;110157;1242;59664;-66
2023/11/16 07:23:56;;;;;;;3.70;2.70;;;;;;;7.10;100.00;97334.43;110187;1242;71867;-66
2023/11/16 07:26:25;;;;;;;4.40;3.80;;;;;;;7.11;100.00;97336.23;110152;1242;68470;-66
2023/11/16 07:28:55;;;;;;;5.00;4.50;;;;;;;7.45;100.00;97340.45;110136;1243;68611;-66
2023/11/16 07:31:27;;;;;;;4.30;3.70;;;;;;;8.01;100.00;97343.03;110183;1242;59737;-68
2023/11/16 07:33:57;;;;;;;3.70;3.30;;;;;;;8.81;100.00;97350.67;110189;1242;59663;-67
2023/11/16 07:36:27;;;;;;;;;;;;;;;9.64;100.00;97353.70;110198;1242;71447;-67
2023/11/16 07:38:57;;;;;;;4.30;3.30;;;;;;;10.37;98.11;97351.48;110181;1242;69232;-65
2023/11/16 07:41:30;;;;;;;5.60;3.60;;;;;;;11.07;87.80;97356.11;110177;1241;69767;-65
2023/11/16 07:44:00;;;;;;;3.70;3.20;;;;;;;11.59;84.95;97362.89;110237;1242;59801;-66
2023/11/16 07:46:30;;;;;;;3.20;2.40;;;;;;;12.08;82.54;97363.27;110178;1242;59725;-65
2023/11/16 07:49:00;;;;;;;2.20;1.90;;;;;;;12.00;80.23;97365.97;110095;1244;72125;-66
2023/11/16 07:51:32;;;;;;;2.20;1.90;;;;;;;11.89;83.24;97373.87;110205;1242;69336;-66
2023/11/16 07:54:04;;;;;;;2.10;1.80;;;;;;;11.77;82.25;97376.90;110166;1242;69745;-65
2023/11/16 07:56:34;;;;;;;2.90;2.10;;;;;;;11.33;81.82;97378.38;110212;1241;59689;-65
2023/11/16 07:59:03;;;;;;;2.20;2.00;;;;;;;10.93;83.20;97383.13;110199;1242;59737;-65
2023/11/16 08:01:50;;;;;;;2.50;2.30;;;;;;;10.64;85.08;97386.28;110232;1240;71988;-66
2023/11/16 08:04:20;;;;;;;3.10;2.10;;;;;;;10.12;85.36;97401.54;110224;1242;68499;-67
2023/11/16 08:06:51;;;;;;;2.80;2.20;;;;;;;9.88;86.88;97406.05;110198;1242;68375;-67
2023/11/16 08:09:23;;;;;;;3.00;2.70;;;;;;;9.69;87.68;97406.46;110158;1240;59700;-65
2023/11/16 08:11:56;;;;;;;2.70;2.20;;;;;;;9.49;90.91;97411.81;110207;1242;59799;-65
2023/11/16 08:14:25;;;;;;;3.40;2.50;;;;;;;9.26;93.04;97413.90;110206;1245;71246;-66
2023/11/16 08:16:56;;;;;;;3.90;2.90;;;;;;;8.99;94.62;97406.33;110205;1240;68454;-65
2023/11/16 08:19:31;;;;;;;3.10;2.50;;;;;;;8.77;95.96;97411.44;110190;1243;69858;-65
2023/11/16 08:22:01;;;;;;;2.90;2.50;;;;;;;8.72;98.22;97411.09;110231;1242;59693;-65
2023/11/16 08:24:31;;;;;;;5.00;3.70;;;;;;;8.61;98.81;97404.98;110239;1243;59633;-65
2023/11/16 08:27:01;;;;;;;4.10;3.30;;;;;;;8.32;100.00;97409.28;110178;1243;71385;-65
2023/11/16 08:29:31;;;;;;;5.60;4.20;;;;;;;8.31;100.00;97410.08;110205;1242;68251;-65
2023/11/16 08:32:01;;;;;;;4.20;3.80;;;;;;;8.12;100.00;97407.95;110205;1242;69278;-64
2023/11/16 08:34:31;;;;;;;4.20;3.50;;;;;;;8.01;100.00;97412.45;110183;1241;59745;-65
2023/11/16 08:37:01;;;;;;;4.90;3.90;;;;;;;7.85;100.00;97413.98;110252;1242;59669;-66
2023/11/16 08:39:31;;;;;;;4.40;4.00;;;;;;;7.83;100.00;97412.55;110212;1242;71370;-65
2023/11/16 08:42:01;;;;;;;5.40;4.00;;;;;;;7.78;100.00;97409.36;110264;1248;69243;-65
2023/11/16 08:44:33;;;;;;;5.20;4.40;;;;;;;7.48;100.00;97408.95;110261;1242;69368;-65
2023/11/16 08:47:08;;;;;;;6.40;4.80;;;;;;;7.47;100.00;97406.90;110256;1246;60156;-65
2023/11/16 08:49:43;;;;;;;5.50;4.70;;;;;;;7.53;100.00;97401.15;110149;1243;59664;-65
2023/11/16 08:52:14;;;;;;;5.20;4.20;;;;;;;7.46;100.00;97404.88;110234;1242;71414;-65
2023/11/16 08:54:44;;;;;;;5.60;4.60;;;;;;;7.62;100.00;97406.21;110211;1241;69868;-65
2023/11/16 08:57:13;;;;;;;5.90;4.30;;;;;;;7.69;100.00;97412.36;110180;1242;69321;-65
2023/11/16 08:59:58;;;;;;;4.80;4.30;;;;;;;7.72;100.00;97417.02;110189;1242;59693;-65
2023/11/16 09:02:29;;;;;;;5.20;4.60;;;;;;;7.84;100.00;97419.42;110148;1241;59743;-65
2023/11/16 09:04:59;;;;;;;4.90;4.30;;;;;;;8.24;100.00;97417.96;110210;1241;71831;-64
2023/11/16 09:07:28;;;;;;;4.90;4.40;;;;;;;9.03;100.00;97416.31;110259;1242;68289;-64
2023/11/16 09:09:59;;;;;;;5.40;4.90;;;;;;;9.40;99.54;97422.88;110179;1241;69262;-65
2023/11/16 09:12:31;;;;;;;4.80;3.90;;;;;;;9.84;99.83;97423.34;110161;1243;59711;-65
2023/11/16 09:15:00;;;;;;;4.60;3.90;;;;;;;9.60;97.03;97424.96;110097;1246;59715;-64
2023/11/16 09:17:30;;;;;;;3.70;3.40;;;;;;;9.53;97.64;97427.39;110201;1242;71426;-65
2023/11/16 09:19:59;;;;;;;5.60;4.20;;;;;;;9.31;95.78;97428.52;110210;1242;68645;-64
2023/11/16 09:22:29;;;;;;;4.60;3.80;;;;;;;9.03;97.62;97428.14;110207;1242;69364;-66
2023/11/16 09:25:02;;;;;;;5.10;4.60;;;;;;;8.91;99.57;97425.81;110163;1249;59686;-66
2023/11/16 09:27:38;;;;;;;4.80;4.30;;;;;;;8.84;100.00;97430.06;110230;1243;59631;-66
2023/11/16 09:30:14;;;;;;;4.60;4.00;;;;;;;8.54;100.00;97434.80;110248;1242;71224;-67
2023/11/16 09:32:47;;;;;;;3.90;3.50;;;;;;;8.54;100.00;97437.08;110205;1243;69244;-66
2023/11/16 09:35:16;;;;;;;5.40;4.50;;;;;;;8.36;100.00;97433.70;110219;1241;69892;-67
2023/11/16 09:37:47;;;;;;;4.40;3.80;;;;;;;8.33;100.00;97433.69;110217;1242;60189;-67
2023/11/16 09:40:21;;;;;;;5.70;4.80;;;;;;;8.04;100.00;97434.95;110247;1242;60086;-66
2023/11/16 09:43:02;;;;;;;4.10;3.60;;;;;;;8.12;100.00;97432.92;110262;1248;71316;-67
2023/11/16 09:45:31;;;;;;;5.00;4.00;;;;;;;8.16;100.00;97434.22;110277;1240;68603;-65
2023/11/16 09:48:10;;;;;;;4.50;3.70;;;;;;;8.16;100.00;97433.39;110179;1242;68363;-64
2023/11/16 09:50:48;;;;;;;4.50;4.10;;;;;;;8.45;100.00;97432.61;110259;1242;59737;-67
2023/11/16 09:53:22;;;;;;;4.60;3.70;;;;;;;8.98;98.45;97422.25;110205;1242;60161;-64
2023/11/16 09:55:57;;;;;;;4.20;3.80;;;;;;;9.88;95.59;97424.10;110184;1241;71236;-65
2023/11/16 09:58:28;;;;;;;5.10;3.60;;;;;;;11.18;91.04;97413.44;110178;1242;69057;-67
2023/11/16 10:00:59;;;;;;;4.00;3.30;;;;;;;12.49;85.82;97410.65;110183;1242;69112;-66
2023/11/16 10:03:31;;;;;;;3.70;3.30;;;;;;;13.40;77.42;97416.00;110224;1240;59748;-65
2023/11/16 10:06:06;;;;;;;3.50;3.00;;;;;;;13.10;72.30;97409.99;110230;1244;59713;-65
2023/11/16 10:08:40;;;;;;;4.00;3.40;;;;;;;11.56;75.89;97406.61;110186;1242;71281;-65
2023/11/16 10:11:09;;;;;;;4.40;3.40;;;;;;;11.24;76.70;97408.47;110203;1242;68844;-64
2023/11/16 10:13:39;;;;;;;4.00;3.40;;;;;;;10.90;78.18;97411.59;110274;1241;69205;-64
2023/11/16 10:16:12;;;;;;;4.40;3.80;;;;;;;10.38;79.74;97414.27;110165;1241;59664;-65
2023/11/16 10:18:42;;;;;;;3.70;3.30;;;;;;;10.20;81.11;97412.48;110210;1242;59699;-64
2023/11/16 10:21:14;;;;;;;3.30;3.00;;;;;;;10.17;82.22;97413.89;110225;1242;71458;-65
2023/11/16 10:23:45;;;;;;;3.60;3.20;;;;;;;10.51;81.37;97412.88;110142;1242;69608;-64
2023/11/16 10:26:16;;;;;;;3.50;2.90;;;;;;;10.98;80.57;97407.65;110177;1243;69718;-64
2023/11/16 10:28:54;;;;;;;5.30;3.30;;;;;;;11.58;77.87;97408.55;110150;1242;59735;-65
2023/11/16 10:31:23;;;;;;;3.50;2.60;;;;;;;11.35;76.18;97403.45;110182;1242;59708;-65
2023/11/16 10:33:52;;;;;;;3.50;2.60;;;;;;;11.74;75.62;97402.79;110166;1240;70986;-65
2023/11/16 10:36:26;;;;;;;3.60;3.00;;;;;;;12.06;76.21;97397.12;110174;1242;69668;-65
2023/11/16 10:38:58;;;;;;;3.50;2.80;;;;;;;12.31;74.34;97397.27;110213;1242;69295;-64
2023/11/16 10:41:29;;;;;;;2.70;2.50;;;;;;;11.47;73.14;97395.21;110148;1240;59971;-64
2023/11/16 10:44:01;;;;;;;2.70;2.20;;;;;;;11.67;74.80;97394.56;110218;1242;59747;-64
2023/11/16 10:46:31;;;;;;;3.50;2.80;;;;;;;11.42;74.88;97398.24;110149;1244;71981;-66
2023/11/16 10:49:04;;;;;;;3.50;2.70;;;;;;;10.80;76.32;97398.89;110221;1250;69234;-65
2023/11/16 10:51:36;;;;;;;4.20;2.50;;;;;;;10.78;75.82;97404.06;110131;1243;69783;-67
2023/11/16 10:54:12;;;;;;;3.90;2.40;;;;;;;11.10;74.86;97403.09;110138;1243;59702;-64
2023/11/16 10:56:42;;;;;;;3.20;2.40;;;;;;;11.34;74.25;97405.69;110165;1242;59672;-64
2023/11/16 10:59:14;;;;;;;2.80;1.90;;;;;;;11.81;71.77;97404.31;109541;1248;809238;-64
2023/11/16 11:01:43;;;;;;;2.70;2.20;;;;;;;13.25;70.44;97407.73;110134;1242;69191;-64
2023/11/16 11:04:13;;;;;;;2.60;2.10;;;;;;;14.67;70.21;97403.00;110153;1241;69282;-64
2023/11/16 11:06:43;;;;;;;3.00;2.10;;;;;;;15.01;59.04;97401.84;110189;1241;59702;-64
2023/11/16 11:09:15;;;;;;;2.60;2.30;;;;;;;14.46;58.86;97404.33;110198;1243;59678;-66
2023/11/16 11:11:44;;;;;;;3.60;2.40;;;;;;;14.71;60.17;97408.84;110201;1248;71885;-65
2023/11/16 11:14:25;;;;;;;2.60;2.40;;;;;;;14.91;59.47;97409.42;110237;1243;70083;-65
2023/11/16 11:17:01;;;;;;;2.90;2.30;;;;;;;15.11;56.78;97406.21;110192;1243;68379;-65
2023/11/16 11:19:31;;;;;;;2.60;2.30;;;;;;;14.44;57.35;97408.59;110209;1242;59678;-65
2023/11/16 11:22:01;;;;;;;2.30;1.80;;;;;;;14.61;57.10;97414.28;110204;1242;59773;-65
2023/11/16 11:24:30;;;;;;;2.10;1.80;;;;;;;14.95;55.75;97406.95;110211;1242;72007;-65
2023/11/16 11:26:59;;;;;;;;;;;;;;;16.18;52.71;97404.84;110249;1242;68938;-65
2023/11/16 11:29:29;;;;;;;2.30;1.60;;;;;;;17.09;50.72;97401.98;110165;1242;69229;-64
2023/11/16 11:32:27;;;;;;;2.10;1.70;;;;;;;17.48;49.83;97398.73;110207;1242;59737;-64
2023/11/16 11:34:57;;;;;;;1.60;1.30;;;;;;;16.62;48.33;97396.94;110057;1241;59689;-64
2023/11/16 11:37:44;;;;;;;1.50;1.30;;;;;;;16.52;50.80;97402.83;110216;1243;71414;-63
2023/11/16 11:40:14;;;;;;;1.60;1.30;;;;;;;16.02;50.65;97406.00;110221;1242;68709;-64
2023/11/16 11:42:48;;;;;;;2.30;1.80;;;;;;;14.99;49.40;97405.59;110257;1243;69978;-63
2023/11/16 11:45:20;;;;;;;1.80;1.30;;;;;;;14.35;51.68;97408.45;110261;1242;59737;-65
2023/11/16 11:47:50;;;;;;;1.90;1.50;;;;;;;13.67;52.60;97410.86;110229;1241;59690;-65